createdAt,value
2022-07-28T00:02:53.276Z,0
2022-07-28T00:07:53.609Z,0
2022-07-28T00:12:52.690Z,0
2022-07-28T00:17:53.703Z,0
2022-07-28T00:22:52.849Z,0
2022-07-28T00:27:52.900Z,0
2022-07-28T00:32:53.170Z,0
2022-07-28T00:37:54.472Z,0
2022-07-28T00:42:53.504Z,0
2022-07-28T00:47:52.859Z,0
2022-07-28T00:52:53.088Z,0
2022-07-28T00:57:53.355Z,0
2022-07-28T01:02:53.805Z,0
2022-07-28T01:07:53.376Z,0
2022-07-28T01:12:53.669Z,0
2022-07-28T01:17:52.758Z,0
2022-07-28T01:22:53.010Z,0
2022-07-28T01:27:53.136Z,0
2022-07-28T01:32:53.243Z,0
2022-07-28T01:37:53.605Z,0
2022-07-28T01:42:52.772Z,0
2022-07-28T01:47:53.729Z,0
2022-07-28T01:52:53.040Z,0
2022-07-28T01:57:53.431Z,0
2022-07-28T02:02:54.687Z,0
2022-07-28T02:07:52.878Z,0
2022-07-28T02:12:53.092Z,0
2022-07-28T02:17:53.177Z,0
2022-07-28T02:22:53.429Z,0
2022-07-28T02:27:53.536Z,0
2022-07-28T02:32:54.306Z,0
2022-07-28T02:37:53.411Z,0
2022-07-28T02:42:52.907Z,0
2022-07-28T02:47:53.037Z,0
2022-07-28T02:52:53.414Z,0
2022-07-28T02:57:57.103Z,0
2022-07-28T03:02:52.948Z,0
2022-07-28T03:07:53.327Z,0
2022-07-28T03:12:53.778Z,0
2022-07-28T03:17:53.330Z,0
2022-07-28T03:22:53.061Z,0
2022-07-28T03:27:53.666Z,0
2022-07-28T03:32:53.115Z,0
2022-07-28T03:37:53.378Z,5
2022-07-28T03:42:53.761Z,5
2022-07-28T03:47:52.992Z,9
2022-07-28T03:52:53.723Z,9
2022-07-28T03:57:52.953Z,14.7
2022-07-28T04:02:53.487Z,14.7
2022-07-28T04:07:53.091Z,21
2022-07-28T04:12:53.428Z,21
2022-07-28T04:17:52.903Z,23
2022-07-28T04:22:53.112Z,23
2022-07-28T04:27:53.382Z,33
2022-07-28T04:32:53.664Z,33
2022-07-28T04:37:52.916Z,36
2022-07-28T04:42:53.171Z,36
2022-07-28T04:47:53.419Z,48
2022-07-28T04:52:53.678Z,48
2022-07-28T04:57:53.960Z,59
2022-07-28T05:02:53.089Z,59
2022-07-28T05:07:53.017Z,64
2022-07-28T05:12:53.387Z,64
2022-07-28T05:17:53.531Z,91.5
2022-07-28T05:22:53.929Z,91.5
2022-07-28T05:27:53.453Z,98.5
2022-07-28T05:32:53.773Z,98.5
2022-07-28T05:37:53.178Z,91.5
2022-07-28T05:42:53.078Z,91.5
2022-07-28T05:47:53.313Z,91
2022-07-28T05:52:53.445Z,91
2022-07-28T05:57:53.517Z,119
2022-07-28T06:02:53.036Z,119
2022-07-28T06:07:53.204Z,125
2022-07-28T06:12:53.303Z,125
2022-07-28T06:17:53.400Z,114
2022-07-28T06:22:53.697Z,114
2022-07-28T06:27:53.917Z,136
2022-07-28T06:32:53.317Z,136
2022-07-28T06:37:55.179Z,174
2022-07-28T06:42:53.311Z,174
2022-07-28T06:47:53.761Z,192
2022-07-28T06:52:53.911Z,192
2022-07-28T06:57:53.264Z,229
2022-07-28T07:02:53.424Z,229
2022-07-28T07:07:53.824Z,179.5
2022-07-28T07:12:53.067Z,179.5
2022-07-28T07:17:53.337Z,179
2022-07-28T07:22:53.595Z,179
2022-07-28T07:27:53.757Z,192
2022-07-28T07:32:53.786Z,192
2022-07-28T07:37:53.920Z,232
2022-07-28T07:42:53.142Z,232
2022-07-28T07:47:53.316Z,250
2022-07-28T07:52:53.463Z,250
2022-07-28T07:57:53.710Z,258
2022-07-28T08:02:53.918Z,258
2022-07-28T08:07:53.239Z,258
2022-07-28T08:12:53.395Z,258
2022-07-28T08:17:53.574Z,301
2022-07-28T08:22:53.884Z,301
2022-07-28T08:27:53.179Z,338.5
2022-07-28T08:32:57.411Z,338.5
2022-07-28T08:37:53.675Z,336
2022-07-28T08:42:53.005Z,336
2022-07-28T08:48:10.002Z,262
2022-07-28T08:52:53.682Z,262
2022-07-28T08:57:58.751Z,467.5
2022-07-28T09:02:53.307Z,467.5
2022-07-28T09:07:55.854Z,440.5
2022-07-28T09:12:54.011Z,440.5
2022-07-28T09:17:53.154Z,343
2022-07-28T09:22:54.022Z,343
2022-07-28T09:27:53.708Z,363
2022-07-28T09:32:54.092Z,363
2022-07-28T09:37:53.359Z,408
2022-07-28T09:42:53.707Z,408
2022-07-28T09:47:54.692Z,406
2022-07-28T09:52:53.443Z,406
2022-07-28T09:57:54.038Z,431
2022-07-28T10:02:53.220Z,431
2022-07-28T10:07:53.860Z,423
2022-07-28T10:12:53.948Z,423
2022-07-28T10:17:53.281Z,425
2022-07-28T10:22:53.368Z,425
2022-07-28T10:27:53.556Z,381
2022-07-28T10:32:54.002Z,381
2022-07-28T10:37:53.183Z,311
2022-07-28T10:42:53.341Z,311
2022-07-28T10:47:54.297Z,383
2022-07-28T10:52:59.606Z,383
2022-07-28T10:58:12.299Z,346.5
2022-07-28T11:02:54.387Z,346.5
2022-07-28T11:07:54.040Z,304
2022-07-28T11:12:53.237Z,304
2022-07-28T11:17:53.659Z,359.3
2022-07-28T11:22:54.213Z,359.3
2022-07-28T11:27:53.390Z,359
2022-07-28T11:32:53.805Z,359
2022-07-28T11:37:53.962Z,374
2022-07-28T11:42:55.298Z,374
2022-07-28T11:47:53.809Z,384.5
2022-07-28T11:52:53.936Z,384.5
2022-07-28T11:57:54.141Z,303
2022-07-28T12:02:53.577Z,303
2022-07-28T12:07:54.128Z,338
2022-07-28T12:12:53.164Z,338
2022-07-28T12:17:53.271Z,407
2022-07-28T12:22:53.642Z,407
2022-07-28T12:27:55.434Z,295
2022-07-28T12:32:53.529Z,295
2022-07-28T12:37:53.979Z,951
2022-07-28T12:42:53.898Z,951
2022-07-28T12:47:54.059Z,225
2022-07-28T12:52:53.352Z,225
2022-07-28T12:57:53.466Z,129.5
2022-07-28T13:02:56.454Z,129.5
2022-07-28T13:07:53.825Z,168
2022-07-28T13:12:54.076Z,168
2022-07-28T13:17:53.342Z,122.5
2022-07-28T13:22:53.593Z,122.5
2022-07-28T13:27:56.013Z,132.5
2022-07-28T13:32:53.699Z,132.5
2022-07-28T13:37:54.103Z,110
2022-07-28T13:42:57.282Z,110
2022-07-28T13:47:53.840Z,118
2022-07-28T13:52:53.203Z,118
2022-07-28T13:57:56.816Z,94
2022-07-28T14:02:54.241Z,94
2022-07-28T14:07:53.690Z,94
2022-07-28T14:12:54.240Z,94
2022-07-28T14:17:53.659Z,93
2022-07-28T14:22:54.077Z,93
2022-07-28T14:27:53.168Z,86
2022-07-28T14:32:53.343Z,86
2022-07-28T14:38:53.845Z,101
2022-07-28T14:42:53.931Z,101
2022-07-28T14:47:53.358Z,90.5
2022-07-28T14:52:53.748Z,90.5
2022-07-28T14:57:55.388Z,71
2022-07-28T15:02:53.965Z,71
2022-07-28T15:07:53.629Z,62
2022-07-28T15:12:53.364Z,62
2022-07-28T15:17:54.017Z,57
2022-07-28T15:22:53.524Z,57
2022-07-28T15:27:53.743Z,69
2022-07-28T15:32:57.524Z,69
2022-07-28T15:37:53.857Z,76
2022-07-28T15:42:53.361Z,76
2022-07-28T15:47:53.588Z,60
2022-07-28T15:52:53.951Z,60
2022-07-28T15:57:53.425Z,53.5
2022-07-28T16:02:54.242Z,53.5
2022-07-28T16:07:53.915Z,56
2022-07-28T16:12:53.431Z,56
2022-07-28T16:17:53.521Z,50
2022-07-28T16:22:53.668Z,50
2022-07-28T16:27:54.085Z,56
2022-07-28T16:32:53.410Z,56
2022-07-28T16:37:53.683Z,53
2022-07-28T16:42:53.998Z,53
2022-07-28T16:47:53.968Z,48
2022-07-28T16:52:54.281Z,48
2022-07-28T16:57:53.457Z,46
2022-07-28T17:02:54.149Z,46
2022-07-28T17:07:54.296Z,49
2022-07-28T17:12:53.601Z,49
2022-07-28T17:17:53.758Z,47
2022-07-28T17:22:54.113Z,47
2022-07-28T17:27:54.364Z,52.5
2022-07-28T17:32:53.454Z,52.5
2022-07-28T17:37:53.816Z,53
2022-07-28T17:42:54.183Z,53
2022-07-28T17:47:54.211Z,62
2022-07-28T17:52:53.767Z,62
2022-07-28T17:57:53.924Z,71
2022-07-28T18:02:54.410Z,71
2022-07-28T18:07:59.399Z,72
2022-07-28T18:12:53.528Z,72
2022-07-28T18:17:56.162Z,62
2022-07-28T18:22:54.290Z,62
2022-07-28T18:27:53.519Z,44
2022-07-28T18:32:53.628Z,44
2022-07-28T18:37:53.821Z,26
2022-07-28T18:42:53.943Z,26
2022-07-28T18:47:53.485Z,19
2022-07-28T18:52:55.329Z,19
2022-07-28T18:57:53.771Z,12
2022-07-28T19:02:54.084Z,12
2022-07-28T19:07:53.379Z,6
2022-07-28T19:12:54.074Z,6
2022-07-28T19:18:12.155Z,0
2022-07-28T19:22:53.456Z,0
2022-07-28T19:27:53.766Z,0
2022-07-28T19:32:53.963Z,0
2022-07-28T19:37:54.312Z,0
2022-07-28T19:42:53.625Z,0
2022-07-28T19:47:53.837Z,0
2022-07-28T19:52:56.683Z,0
2022-07-28T19:57:53.724Z,0
2022-07-28T20:02:54.149Z,0
2022-07-28T20:07:54.402Z,0
2022-07-28T20:12:53.812Z,0
2022-07-28T20:17:54.154Z,0
2022-07-28T20:22:53.425Z,0
2022-07-28T20:27:53.863Z,0
2022-07-28T20:32:54.037Z,0
2022-07-28T20:37:54.190Z,0
2022-07-28T20:42:54.538Z,0
2022-07-28T20:47:54.069Z,0
2022-07-28T20:52:54.307Z,0
2022-07-28T20:57:54.221Z,0
2022-07-28T21:02:53.949Z,0
2022-07-28T21:08:05.980Z,0
2022-07-28T21:12:53.945Z,0
2022-07-28T21:17:54.088Z,0
2022-07-28T21:22:54.100Z,0
2022-07-28T21:27:54.427Z,0
2022-07-28T21:32:53.761Z,0
2022-07-28T21:37:54.018Z,0
2022-07-28T21:42:54.475Z,0
2022-07-28T21:47:53.903Z,0
2022-07-28T21:52:54.408Z,0
2022-07-28T21:57:54.377Z,0
2022-07-28T22:02:53.651Z,0
2022-07-28T22:07:53.786Z,0
2022-07-28T22:12:54.114Z,0
2022-07-28T22:17:54.240Z,0
2022-07-28T22:22:53.777Z,0
2022-07-28T22:27:53.912Z,0
2022-07-28T22:32:54.037Z,0
2022-07-28T22:37:54.130Z,0
2022-07-28T22:42:54.425Z,0
2022-07-28T22:47:53.918Z,0
2022-07-28T22:52:54.187Z,0
2022-07-28T22:57:54.386Z,0
2022-07-28T23:02:53.477Z,0
2022-07-28T23:07:59.182Z,0
2022-07-28T23:12:58.930Z,0
2022-07-28T23:17:54.144Z,0
2022-07-28T23:22:54.218Z,0
2022-07-28T23:27:54.365Z,0
2022-07-28T23:32:54.488Z,0
2022-07-28T23:37:53.683Z,0
2022-07-28T23:42:54.193Z,0
2022-07-28T23:47:59.228Z,0
2022-07-28T23:52:53.797Z,0
2022-07-28T23:57:53.879Z,0
